Terminal Aerodrome Forecast
Issued by NWS Sioux Falls, SD

Home | Current Version | Previous Version | Text Only | Print | Product List | Glossary Off
Versions: 1 2 3 4 5 6 7 8 9 10 11 12 13 14 15 16

000
FTUS43 KFSD 231137
TAFSUX
TAF
KSUX 231137Z 2312/2412 14009KT P6SM BKN010
     FM231500 15007KT P6SM BKN050
     FM232100 16013G19KT P6SM BKN060
     FM240000 15009KT P6SM SCT070=

USA.gov is the U.S. government's official web portal to all federal, state and local government web resources and services.